createdAt,value
2019-04-14T00:02:38.243Z,4.69
2019-04-14T00:05:10.437Z,4.75
2019-04-14T00:07:40.578Z,4.82
2019-04-14T00:10:11.463Z,4.77
2019-04-14T00:12:40.580Z,4.81
2019-04-14T00:15:27.194Z,4.83
2019-04-14T00:17:43.616Z,4.77
2019-04-14T00:20:12.726Z,4.77
2019-04-14T00:22:42.487Z,4.76
2019-04-14T00:25:12.914Z,4.78
2019-04-14T00:27:43.235Z,4.76
2019-04-14T00:30:14.395Z,4.74
2019-04-14T00:32:48.713Z,4.76
2019-04-14T00:35:36.445Z,4.76
2019-04-14T00:38:19.498Z,4.76
2019-04-14T00:41:34.367Z,4.82
2019-04-14T00:44:12.512Z,4.78
2019-04-14T00:46:54.641Z,4.76
2019-04-14T00:49:24.643Z,4.75
2019-04-14T00:51:54.876Z,4.78
2019-04-14T00:54:24.437Z,4.81
2019-04-14T00:56:54.143Z,4.81
2019-04-14T00:59:23.276Z,4.83
2019-04-14T01:01:52.716Z,4.86
2019-04-14T01:04:22.959Z,4.84
2019-04-14T01:06:53.275Z,4.79
2019-04-14T01:09:23.967Z,4.87
2019-04-14T01:11:53.180Z,4.85
2019-04-14T01:14:23.308Z,4.89
2019-04-14T01:16:53.722Z,4.90
2019-04-14T01:19:22.767Z,4.89
2019-04-14T01:21:52.542Z,4.91
2019-04-14T01:24:22.735Z,4.86
2019-04-14T01:26:52.883Z,4.83
2019-04-14T01:29:23.248Z,4.83
2019-04-14T01:31:53.661Z,4.81
2019-04-14T01:34:23.835Z,4.75
2019-04-14T01:36:54.040Z,4.76
2019-04-14T01:39:24.225Z,4.82
2019-04-14T01:41:54.342Z,4.81
2019-04-14T01:44:24.232Z,4.77
2019-04-14T01:46:54.236Z,4.76
2019-04-14T01:49:24.621Z,4.78
2019-04-14T01:52:12.374Z,4.71
2019-04-14T01:54:53.832Z,4.73
2019-04-14T01:57:50.953Z,4.69
2019-04-14T02:00:38.172Z,4.68
2019-04-14T02:03:08.463Z,4.71
2019-04-14T02:05:38.530Z,4.75
2019-04-14T02:08:08.993Z,4.81
2019-04-14T02:10:39.229Z,4.81
2019-04-14T02:13:09.282Z,4.77
2019-04-14T02:15:39.495Z,4.78
2019-04-14T02:18:09.800Z,4.81
2019-04-14T02:20:40.272Z,4.77
2019-04-14T02:23:10.379Z,4.76
2019-04-14T02:25:40.436Z,4.74
2019-04-14T02:28:11.135Z,4.74
2019-04-14T02:30:51.209Z,4.82
2019-04-14T02:33:41.453Z,4.71
2019-04-14T02:36:14.831Z,4.74
2019-04-14T02:41:22.636Z,4.63
2019-04-14T02:46:15.762Z,4.60
2019-04-14T02:48:50.863Z,4.48
2019-04-14T02:51:21.195Z,4.41
2019-04-14T02:56:15.955Z,4.25
2019-04-14T03:01:31.667Z,4.25
2019-04-14T03:03:49.472Z,4.27
2019-04-14T03:08:51.510Z,4.26
2019-04-14T03:11:24.730Z,4.23
2019-04-14T03:13:58.483Z,4.25
2019-04-14T03:16:32.994Z,4.22
2019-04-14T03:19:06.254Z,4.28
2019-04-14T03:21:54.762Z,4.31
2019-04-14T03:24:35.942Z,4.33
2019-04-14T03:27:30.883Z,4.37
2019-04-14T03:30:17.394Z,4.42
2019-04-14T03:33:05.302Z,4.48
2019-04-14T03:35:35.178Z,4.52
2019-04-14T03:37:46.857Z,4.58
2019-04-14T03:40:15.940Z,4.57
2019-04-14T03:45:21.737Z,4.54
2019-04-14T03:47:43.931Z,4.64
2019-04-14T03:50:13.700Z,4.65
2019-04-14T03:52:48.348Z,4.60
2019-04-14T03:55:05.781Z,4.62
2019-04-14T03:57:19.347Z,4.70
2019-04-14T03:59:48.438Z,4.73
2019-04-14T04:02:18.286Z,4.67
2019-04-14T04:04:48.755Z,4.65
2019-04-14T04:07:19.150Z,4.64
2019-04-14T04:09:54.073Z,4.68
2019-04-14T04:12:23.100Z,4.67
2019-04-14T04:14:53.121Z,4.70
2019-04-14T04:17:47.309Z,4.70
2019-04-14T04:20:35.005Z,4.65
2019-04-14T04:23:14.706Z,4.68
2019-04-14T04:26:03.932Z,4.69
2019-04-14T04:29:04.820Z,4.69
2019-04-14T04:31:56.874Z,4.75
2019-04-14T04:34:34.123Z,4.66
2019-04-14T04:37:19.214Z,4.64
2019-04-14T04:39:49.610Z,4.65
2019-04-14T04:42:19.753Z,4.69
2019-04-14T04:44:48.893Z,4.72
2019-04-14T04:47:18.772Z,4.66
2019-04-14T04:49:49.015Z,4.63
2019-04-14T04:52:19.120Z,4.57
2019-04-14T04:54:49.531Z,4.52
2019-04-14T04:57:19.824Z,4.45
2019-04-14T04:59:49.639Z,4.42
2019-04-14T05:02:19.791Z,4.43
2019-04-14T05:04:48.928Z,4.39
2019-04-14T05:07:18.753Z,4.36
2019-04-14T05:10:22.026Z,4.34
2019-04-14T05:13:20.351Z,4.30
2019-04-14T05:15:53.180Z,4.30
2019-04-14T05:18:24.706Z,4.37
2019-04-14T05:20:55.215Z,4.38
2019-04-14T05:23:25.603Z,4.36
2019-04-14T05:25:56.096Z,4.26
2019-04-14T05:28:25.126Z,4.20
2019-04-14T05:30:54.726Z,4.17
2019-04-14T05:33:24.948Z,4.29
2019-04-14T05:35:55.191Z,4.18
2019-04-14T05:38:25.499Z,4.20
2019-04-14T05:40:56.107Z,4.24
2019-04-14T05:43:35.947Z,4.22
2019-04-14T05:45:56.651Z,4.24
2019-04-14T05:48:25.690Z,4.28
2019-04-14T05:50:55.495Z,4.34
2019-04-14T05:53:24.551Z,4.31
2019-04-14T05:55:54.390Z,4.41
2019-04-14T05:58:23.699Z,4.50
2019-04-14T06:00:53.384Z,4.50
2019-04-14T06:03:23.476Z,4.51
2019-04-14T06:05:52.494Z,4.41
2019-04-14T06:08:21.490Z,4.41
2019-04-14T06:10:50.532Z,4.44
2019-04-14T06:13:19.547Z,4.43
2019-04-14T06:15:48.866Z,4.42
2019-04-14T06:18:17.947Z,4.31
2019-04-14T06:20:46.937Z,4.40
2019-04-14T06:23:16.255Z,4.41
2019-04-14T06:25:45.608Z,4.44
2019-04-14T06:28:14.693Z,4.43
2019-04-14T06:31:05.827Z,4.40
2019-04-14T06:33:53.379Z,4.49
2019-04-14T06:36:39.986Z,4.53
2019-04-14T06:39:18.751Z,4.42
2019-04-14T06:41:47.738Z,4.52
2019-04-14T06:44:16.785Z,4.55
2019-04-14T06:46:46.145Z,4.55
2019-04-14T06:49:15.147Z,4.48
2019-04-14T06:51:44.150Z,4.57
2019-04-14T06:54:13.264Z,4.59
2019-04-14T06:56:42.286Z,4.63
2019-04-14T06:59:11.342Z,4.64
2019-04-14T07:01:40.712Z,4.61
2019-04-14T07:04:09.773Z,4.67
2019-04-14T07:06:39.097Z,4.67
2019-04-14T07:09:08.352Z,4.78
2019-04-14T07:11:37.398Z,4.75
2019-04-14T07:14:06.450Z,4.79
2019-04-14T07:16:35.509Z,4.83
2019-04-14T07:19:04.522Z,4.76
2019-04-14T07:21:33.535Z,5.00
2019-04-14T07:24:02.598Z,5.14
2019-04-14T07:26:31.653Z,5.18
2019-04-14T07:29:00.666Z,5.27
2019-04-14T07:31:57.676Z,5.31
2019-04-14T07:34:38.083Z,5.37
2019-04-14T07:37:19.627Z,5.60
2019-04-14T07:39:55.505Z,5.73
2019-04-14T07:42:30.845Z,6.03
2019-04-14T07:45:08.651Z,6.13
2019-04-14T07:47:55.659Z,6.39
2019-04-14T07:50:39.211Z,6.31
2019-04-14T07:53:25.866Z,6.45
2019-04-14T07:56:16.662Z,6.49
2019-04-14T07:59:03.465Z,6.60
2019-04-14T08:01:51.505Z,6.55
2019-04-14T08:04:32.768Z,6.52
2019-04-14T08:07:01.783Z,6.42
2019-04-14T08:09:30.718Z,6.45
2019-04-14T08:11:59.852Z,6.77
2019-04-14T08:14:28.877Z,7.07
2019-04-14T08:16:57.989Z,7.16
2019-04-14T08:19:27.074Z,7.10
2019-04-14T08:21:56.131Z,7.30
2019-04-14T08:24:25.166Z,7.31
2019-04-14T08:26:54.182Z,7.48
2019-04-14T08:29:23.222Z,7.41
2019-04-14T08:31:52.275Z,7.84
2019-04-14T08:34:21.323Z,7.87
2019-04-14T08:36:50.405Z,7.85
2019-04-14T08:39:19.410Z,8.16
2019-04-14T08:42:09.718Z,7.89
2019-04-14T08:44:42.467Z,7.93
2019-04-14T08:47:46.229Z,7.92
2019-04-14T08:50:43.316Z,7.90
2019-04-14T08:53:18.048Z,8.16
2019-04-14T08:56:12.061Z,8.19
2019-04-14T08:58:46.622Z,8.42
2019-04-14T09:01:25.175Z,8.36
2019-04-14T09:04:07.660Z,8.26
2019-04-14T09:06:41.221Z,8.32
2019-04-14T09:09:35.142Z,8.34
2019-04-14T09:12:15.915Z,8.27
2019-04-14T09:14:42.031Z,8.48
2019-04-14T09:17:11.041Z,8.56
2019-04-14T09:19:40.167Z,8.59
2019-04-14T09:22:09.193Z,8.59
2019-04-14T09:24:38.134Z,8.62
2019-04-14T09:27:07.192Z,8.70
2019-04-14T09:29:36.209Z,8.64
2019-04-14T09:32:07.916Z,8.71
2019-04-14T09:34:36.912Z,8.58
2019-04-14T09:37:05.930Z,8.43
2019-04-14T09:39:34.982Z,8.54
2019-04-14T09:42:04.058Z,8.33
2019-04-14T09:44:33.117Z,8.34
2019-04-14T09:47:02.419Z,8.66
2019-04-14T09:49:31.429Z,8.64
2019-04-14T09:52:00.485Z,9.00
2019-04-14T09:54:29.765Z,9.33
2019-04-14T09:56:58.873Z,9.31
2019-04-14T09:59:27.902Z,9.33
2019-04-14T10:01:56.926Z,9.50
2019-04-14T10:04:25.975Z,9.56
2019-04-14T10:06:54.989Z,9.16
2019-04-14T10:09:23.996Z,9.15
2019-04-14T10:11:56.318Z,8.89
2019-04-14T10:14:24.077Z,8.96
2019-04-14T10:16:53.412Z,8.69
2019-04-14T10:19:22.422Z,8.56
2019-04-14T10:21:51.826Z,8.75
2019-04-14T10:24:20.865Z,8.63
2019-04-14T10:26:49.767Z,8.56
2019-04-14T10:29:18.795Z,8.54
2019-04-14T10:31:47.846Z,8.71
2019-04-14T10:34:16.896Z,8.45
2019-04-14T10:36:45.946Z,8.31
2019-04-14T10:39:15.015Z,8.03
2019-04-14T10:41:44.026Z,7.95
2019-04-14T10:44:13.067Z,7.83
2019-04-14T10:46:42.077Z,7.75
2019-04-14T10:49:11.128Z,7.58
2019-04-14T10:51:40.194Z,7.76
2019-04-14T10:54:09.210Z,7.69
2019-04-14T10:56:38.329Z,7.85
2019-04-14T10:59:07.341Z,7.77
2019-04-14T11:01:36.356Z,7.52
2019-04-14T11:04:07.934Z,7.62
2019-04-14T11:06:58.278Z,7.28
2019-04-14T11:09:27.312Z,7.15
2019-04-14T11:11:56.332Z,7.09
2019-04-14T11:14:26.325Z,7.27
2019-04-14T11:16:55.349Z,7.19
2019-04-14T11:19:24.398Z,7.27
2019-04-14T11:21:53.402Z,7.17
2019-04-14T11:24:24.061Z,7.41
2019-04-14T11:26:53.383Z,7.59
2019-04-14T11:29:22.438Z,7.66
2019-04-14T11:32:09.151Z,7.69
2019-04-14T11:34:47.257Z,7.61
2019-04-14T11:37:35.106Z,7.64
2019-04-14T11:40:06.390Z,7.49
2019-04-14T11:42:35.402Z,7.46
2019-04-14T11:45:04.933Z,7.57
2019-04-14T11:47:33.841Z,7.63
2019-04-14T11:50:02.849Z,7.61
2019-04-14T11:52:31.877Z,7.39
2019-04-14T11:55:00.923Z,7.49
2019-04-14T11:57:30.049Z,7.53
2019-04-14T12:00:17.005Z,7.49
2019-04-14T12:03:08.159Z,7.55
2019-04-14T12:05:56.184Z,7.60
2019-04-14T12:08:32.439Z,7.63
2019-04-14T12:11:01.467Z,7.64
2019-04-14T12:13:30.459Z,7.60
2019-04-14T12:15:59.500Z,7.55
2019-04-14T12:18:28.575Z,7.64
2019-04-14T12:20:57.621Z,7.74
2019-04-14T12:23:26.643Z,7.87
2019-04-14T12:26:05.081Z,7.93
2019-04-14T12:28:28.539Z,7.77
2019-04-14T12:30:57.809Z,7.88
2019-04-14T12:33:26.862Z,8.20
2019-04-14T12:35:55.876Z,8.17
2019-04-14T12:38:25.209Z,8.35
2019-04-14T12:40:56.325Z,8.41
2019-04-14T12:43:56.338Z,8.46
2019-04-14T12:46:56.475Z,8.43
2019-04-14T12:49:29.953Z,8.27
2019-04-14T12:52:21.273Z,8.36
2019-04-14T12:54:48.026Z,8.53
2019-04-14T12:57:21.412Z,8.90
2019-04-14T12:59:50.460Z,9.14
2019-04-14T13:02:25.065Z,9.08
2019-04-14T13:04:55.445Z,9.14
2019-04-14T13:07:24.514Z,9.24
2019-04-14T13:09:53.569Z,9.22
2019-04-14T13:12:22.582Z,9.31
2019-04-14T13:14:51.682Z,9.40
2019-04-14T13:17:20.726Z,9.54
2019-04-14T13:19:49.738Z,9.83
2019-04-14T13:22:18.758Z,9.82
2019-04-14T13:24:47.827Z,9.89
2019-04-14T13:27:17.113Z,10.18
2019-04-14T13:29:46.142Z,10.09
2019-04-14T13:32:15.195Z,10.06
2019-04-14T13:34:44.278Z,10.21
2019-04-14T13:37:13.296Z,9.91
2019-04-14T13:39:42.305Z,9.83
2019-04-14T13:42:11.366Z,9.90
2019-04-14T13:44:40.397Z,9.96
2019-04-14T13:47:09.406Z,10.31
2019-04-14T13:49:39.164Z,10.15
2019-04-14T13:52:08.224Z,10.34
2019-04-14T13:54:37.237Z,10.46
2019-04-14T13:57:06.347Z,10.44
2019-04-14T13:59:35.423Z,10.68
2019-04-14T14:02:04.477Z,10.62
2019-04-14T14:04:33.533Z,10.59
2019-04-14T14:07:02.554Z,10.48
2019-04-14T14:09:31.616Z,10.66
2019-04-14T14:12:11.650Z,10.55
2019-04-14T14:15:02.482Z,10.52
2019-04-14T14:17:55.514Z,10.64
2019-04-14T14:20:55.710Z,10.72
2019-04-14T14:23:29.373Z,10.85
2019-04-14T14:26:02.107Z,10.59
2019-04-14T14:28:31.439Z,10.58
2019-04-14T14:31:00.758Z,10.55
2019-04-14T14:33:29.810Z,10.60
2019-04-14T14:35:58.823Z,10.66
2019-04-14T14:38:27.891Z,10.49
2019-04-14T14:40:58.499Z,10.37
2019-04-14T14:43:27.510Z,10.30
2019-04-14T14:46:18.656Z,10.35
2019-04-14T14:48:52.212Z,10.34
2019-04-14T14:51:40.874Z,10.35
2019-04-14T14:54:09.948Z,10.49
2019-04-14T14:56:38.954Z,10.33
2019-04-14T14:59:08.017Z,10.37
2019-04-14T15:01:37.065Z,10.46
2019-04-14T15:04:06.114Z,10.17
2019-04-14T15:06:35.216Z,10.08
2019-04-14T15:09:06.038Z,10.26
2019-04-14T15:11:35.055Z,10.32
2019-04-14T15:14:05.416Z,10.47
2019-04-14T15:16:34.427Z,10.34
2019-04-14T15:19:03.754Z,10.34
2019-04-14T15:21:32.820Z,10.17
2019-04-14T15:24:01.849Z,10.16
2019-04-14T15:26:30.860Z,10.22
2019-04-14T15:28:59.931Z,10.20
2019-04-14T15:31:28.997Z,10.01
2019-04-14T15:33:58.291Z,10.07
2019-04-14T15:36:27.305Z,9.85
2019-04-14T15:38:56.359Z,9.85
2019-04-14T15:41:25.727Z,9.68
2019-04-14T15:43:54.791Z,9.63
2019-04-14T15:46:23.801Z,9.64
2019-04-14T15:48:52.833Z,9.50
2019-04-14T15:51:21.822Z,9.48
2019-04-14T15:53:50.840Z,9.54
2019-04-14T15:56:41.947Z,9.51
2019-04-14T15:59:30.933Z,9.36
2019-04-14T16:02:13.200Z,9.33
2019-04-14T16:04:59.881Z,9.28
2019-04-14T16:07:57.207Z,9.34
2019-04-14T16:10:36.670Z,9.51
2019-04-14T16:13:16.240Z,9.45
2019-04-14T16:16:03.056Z,9.54
2019-04-14T16:19:06.333Z,9.59
2019-04-14T16:21:35.345Z,9.89
2019-04-14T16:24:04.405Z,9.83
2019-04-14T16:26:55.182Z,9.83
2019-04-14T16:29:43.485Z,9.72
2019-04-14T16:32:35.690Z,9.53
2019-04-14T16:35:09.854Z,9.38
2019-04-14T16:37:38.908Z,9.22
2019-04-14T16:40:08.219Z,9.24
2019-04-14T16:42:37.285Z,9.02
2019-04-14T16:45:07.549Z,9.04
2019-04-14T16:47:36.572Z,9.02
2019-04-14T16:50:05.855Z,8.86
2019-04-14T16:52:44.692Z,8.97
2019-04-14T16:55:32.727Z,9.06
2019-04-14T16:58:39.311Z,9.05
2019-04-14T17:01:11.424Z,9.02
2019-04-14T17:03:40.439Z,8.91
2019-04-14T17:06:09.496Z,8.92
2019-04-14T17:08:38.537Z,8.68
2019-04-14T17:11:07.548Z,8.74
2019-04-14T17:13:39.626Z,8.73
2019-04-14T17:16:43.333Z,8.56
2019-04-14T17:19:20.821Z,8.45
2019-04-14T17:21:54.148Z,8.44
2019-04-14T17:24:32.299Z,8.38
2019-04-14T17:27:23.987Z,8.29
2019-04-14T17:30:01.637Z,8.29
2019-04-14T17:32:55.682Z,8.23
2019-04-14T17:36:02.078Z,8.06
2019-04-14T17:38:50.043Z,8.05
2019-04-14T17:41:43.029Z,7.96
2019-04-14T17:44:17.390Z,7.84
2019-04-14T17:47:17.499Z,7.83
2019-04-14T17:50:08.567Z,7.72
2019-04-14T17:52:43.712Z,7.69
2019-04-14T17:55:35.624Z,7.59
2019-04-14T17:58:28.004Z,7.48
2019-04-14T18:01:15.143Z,7.46
2019-04-14T18:03:49.601Z,7.49
2019-04-14T18:06:40.518Z,7.38
2019-04-14T18:09:40.796Z,7.34
2019-04-14T18:12:34.909Z,7.31
2019-04-14T18:15:23.080Z,7.26
2019-04-14T18:18:13.879Z,7.19
2019-04-14T18:20:46.176Z,7.11
2019-04-14T18:23:15.124Z,7.11
2019-04-14T18:25:44.168Z,7.07
2019-04-14T18:28:44.451Z,7.03
2019-04-14T18:31:35.647Z,6.99
2019-04-14T18:34:29.915Z,6.92
2019-04-14T18:37:16.892Z,6.92
2019-04-14T18:40:08.202Z,6.87
2019-04-14T18:42:44.711Z,6.81
2019-04-14T18:45:17.553Z,6.74
2019-04-14T18:47:54.133Z,6.73
2019-04-14T18:50:52.182Z,6.69
2019-04-14T18:53:43.122Z,6.67
2019-04-14T18:56:34.156Z,6.64
2019-04-14T18:59:21.528Z,6.62
2019-04-14T19:01:51.196Z,6.61
2019-04-14T19:04:20.627Z,6.61
2019-04-14T19:06:49.585Z,6.66
2019-04-14T19:09:18.594Z,6.66
2019-04-14T19:12:06.642Z,6.70
2019-04-14T19:14:38.010Z,6.73
2019-04-14T19:17:25.914Z,6.78
2019-04-14T19:20:01.421Z,6.76
2019-04-14T19:22:26.008Z,6.81
2019-04-14T19:25:07.400Z,6.86
2019-04-14T19:27:26.165Z,6.83
2019-04-14T19:29:55.609Z,6.85
2019-04-14T19:32:24.677Z,6.90
2019-04-14T19:34:54.007Z,6.85
2019-04-14T19:37:23.016Z,6.89
2019-04-14T19:39:52.072Z,6.95
2019-04-14T19:42:21.098Z,6.94
2019-04-14T19:44:50.163Z,6.95
2019-04-14T19:47:19.119Z,6.92
2019-04-14T19:49:49.980Z,6.96
2019-04-14T19:52:18.998Z,6.97
2019-04-14T19:54:48.053Z,6.98
2019-04-14T19:57:17.109Z,6.94
2019-04-14T19:59:46.169Z,6.91
2019-04-14T20:02:15.216Z,6.97
2019-04-14T20:04:44.529Z,6.95
2019-04-14T20:07:13.777Z,6.92
2019-04-14T20:09:43.151Z,6.92
2019-04-14T20:12:12.375Z,6.90
2019-04-14T20:14:41.433Z,6.88
2019-04-14T20:17:32.494Z,6.90
2019-04-14T20:20:17.138Z,6.89
2019-04-14T20:23:05.145Z,6.88
2019-04-14T20:25:43.869Z,6.90
2019-04-14T20:28:31.861Z,6.94
2019-04-14T20:31:18.822Z,6.93
2019-04-14T20:33:48.208Z,6.92
2019-04-14T20:36:17.542Z,6.92
2019-04-14T20:38:46.912Z,6.84
2019-04-14T20:41:15.970Z,6.86
2019-04-14T20:43:45.005Z,6.84
2019-04-14T20:46:14.009Z,6.78
2019-04-14T20:48:43.054Z,6.78
2019-04-14T20:51:12.066Z,6.70
2019-04-14T20:53:41.113Z,6.80
2019-04-14T20:56:10.161Z,6.79
2019-04-14T20:58:39.168Z,6.73
2019-04-14T21:01:09.926Z,6.75
2019-04-14T21:03:49.136Z,6.68
2019-04-14T21:06:32.864Z,6.64
2019-04-14T21:09:13.750Z,6.59
2019-04-14T21:11:57.538Z,6.54
2019-04-14T21:14:37.125Z,6.54
2019-04-14T21:17:09.122Z,6.49
2019-04-14T21:19:51.642Z,6.43
2019-04-14T21:22:48.697Z,6.34
2019-04-14T21:26:00.283Z,6.30
2019-04-14T21:28:35.658Z,6.24
2019-04-14T21:31:15.370Z,6.11
2019-04-14T21:34:06.234Z,6.04
2019-04-14T21:36:44.375Z,6.02
2019-04-14T21:39:31.162Z,5.97
2019-04-14T21:42:00.109Z,5.99
2019-04-14T21:44:29.170Z,5.92
2019-04-14T21:46:58.542Z,5.93
2019-04-14T21:49:27.482Z,5.94
2019-04-14T21:52:04.706Z,5.91
2019-04-14T21:54:33.724Z,5.89
2019-04-14T21:57:34.283Z,5.86
2019-04-14T22:00:22.420Z,5.87
2019-04-14T22:03:05.661Z,5.86
2019-04-14T22:05:45.841Z,5.85
2019-04-14T22:08:18.701Z,5.90
2019-04-14T22:10:51.541Z,5.89
2019-04-14T22:13:20.890Z,5.82
2019-04-14T22:15:49.985Z,5.85
2019-04-14T22:18:19.619Z,5.89
2019-04-14T22:20:48.626Z,5.82
2019-04-14T22:23:17.672Z,5.81
2019-04-14T22:25:46.723Z,5.82
2019-04-14T22:28:16.035Z,5.83
2019-04-14T22:30:45.077Z,5.83
2019-04-14T22:33:14.126Z,5.84
2019-04-14T22:35:43.184Z,5.80
2019-04-14T22:38:12.181Z,5.78
2019-04-14T22:40:41.235Z,5.78
2019-04-14T22:43:10.599Z,5.72
2019-04-14T22:45:39.660Z,5.75
2019-04-14T22:48:08.906Z,5.73
2019-04-14T22:50:37.921Z,5.67
2019-04-14T22:53:06.975Z,5.69
2019-04-14T22:55:36.633Z,5.69
2019-04-14T22:58:05.643Z,5.67
2019-04-14T23:00:51.521Z,5.66
2019-04-14T23:03:48.367Z,5.67
2019-04-14T23:06:45.639Z,5.66
2019-04-14T23:09:33.674Z,5.65
2019-04-14T23:12:20.288Z,5.65
2019-04-14T23:14:54.252Z,5.62
2019-04-14T23:17:45.170Z,5.57
2019-04-14T23:20:24.619Z,5.61
2019-04-14T23:23:12.618Z,5.61
2019-04-14T23:25:41.614Z,5.65
2019-04-14T23:28:10.690Z,5.57
2019-04-14T23:30:39.702Z,5.51
2019-04-14T23:33:08.755Z,5.56
2019-04-14T23:35:37.815Z,5.57
2019-04-14T23:38:06.821Z,5.59
2019-04-14T23:40:35.910Z,5.59
2019-04-14T23:43:04.982Z,5.60
2019-04-14T23:45:33.956Z,5.62
2019-04-14T23:48:03.017Z,5.59
2019-04-14T23:50:32.394Z,5.59
2019-04-14T23:53:01.442Z,5.55
2019-04-14T23:55:30.432Z,5.61
2019-04-14T23:57:59.439Z,5.60
